.
WxDataArchive / Data Records for 2011-02-12
2011-02-11 February 2011 2011-02-13

Data Records for Saturday, 12 February 2011

Time	Temp	Chill	HIndex	Humid	Dewpt	 Wind 	HiWind	WindDir	Rain 	Barom 
-----	----	-----	------	-----	-----	------	------	-------	-----	----- 
00:00	29.7	29.7	29.7	62	18.3	3	7	248	0.00	29.925 
00:05	29.8	29.8	29.8	62	18.4	3	7	248	0.00	29.925 
00:10	30.0	25.8	30.0	62	18.6	4	11	248	0.00	29.925 
00:15	30.1	30.1	30.1	62	18.7	3	7	248	0.00	29.928 
00:20	30.0	30.0	30.0	63	19.0	3	9	248	0.00	29.928 
00:25	30.1	30.1	30.1	63	19.0	3	10	248	0.00	29.928 
00:30	30.1	25.9	30.1	64	19.4	4	10	248	0.00	29.923 
00:35	30.0	24.7	30.0	66	20.0	5	13	248	0.00	29.923 
00:40	29.8	25.5	29.8	69	20.9	4	13	248	0.00	29.923 
00:45	29.5	25.2	29.5	71	21.3	4	10	248	0.00	29.928 
00:50	29.1	24.7	29.1	75	22.2	4	11	248	0.00	29.928 
00:55	28.7	28.7	28.7	78	22.7	3	7	248	0.00	29.928 
01:00	28.4	28.4	28.4	81	23.3	3	6	248	0.00	29.928 
01:05	28.2	28.2	28.2	82	23.4	3	10	248	0.00	29.928 
01:10	28.1	28.1	28.1	84	23.9	3	6	248	0.00	29.928 
01:15	27.9	27.9	27.9	86	24.3	3	10	248	0.00	29.921 
01:20	27.9	22.3	27.9	87	24.5	5	11	248	0.00	29.921 
01:25	27.9	27.9	27.9	87	24.5	3	8	248	0.00	29.921 
01:30	27.9	27.9	27.9	88	24.8	3	10	248	0.00	29.919 
01:35	27.9	23.3	27.9	88	24.8	4	9	248	0.00	29.919 
01:40	28.1	23.6	28.1	88	25.0	4	8	248	0.00	29.919 
01:45	28.1	28.1	28.1	88	25.0	3	9	248	0.00	29.916 
01:50	28.2	28.2	28.2	88	25.1	3	9	248	0.00	29.916 
01:55	28.2	28.2	28.2	88	25.1	3	7	248	0.00	29.916 
02:00	28.2	28.2	28.2	88	25.1	3	9	248	0.00	29.917 
02:05	28.2	23.7	28.2	88	25.1	4	11	248	0.00	29.917 
02:10	28.4	23.9	28.4	88	25.3	4	8	248	0.00	29.917 
02:15	28.4	28.4	28.4	88	25.3	3	7	248	0.00	29.920 
02:20	28.4	28.4	28.4	89	25.6	3	7	248	0.00	29.920 
02:25	28.4	28.4	28.4	89	25.6	3	7	248	0.00	29.920 
02:30	28.4	28.4	28.4	89	25.6	2	5	248	0.00	29.920 
02:35	28.4	28.4	28.4	89	25.6	3	10	248	0.00	29.920 
02:40	28.5	28.5	28.5	89	25.7	3	11	248	0.00	29.920 
02:45	28.7	24.3	28.7	89	25.9	4	9	248	0.00	29.921 
02:50	28.8	28.8	28.8	88	25.7	3	5	248	0.00	29.921 
02:55	28.8	28.8	28.8	88	25.7	3	7	270	0.00	29.921 
03:00	29.0	24.6	29.0	88	25.9	4	9	292	0.00	29.923 
03:05	29.1	29.1	29.1	88	26.0	3	7	248	0.00	29.923 
03:10	29.1	29.1	29.1	87	25.7	2	5	248	0.00	29.923 
03:15	29.1	29.1	29.1	87	25.7	3	8	248	0.00	29.921 
03:20	29.3	25.0	29.3	87	25.9	4	7	248	0.00	29.921 
03:25	29.3	29.3	29.3	86	25.6	3	8	248	0.00	29.921 
03:30	29.4	29.4	29.4	85	25.5	3	7	248	0.00	29.923 
03:35	29.4	29.4	29.4	85	25.5	2	7	248	0.00	29.923 
03:40	29.5	29.5	29.5	85	25.6	3	6	248	0.00	29.923 
03:45	29.7	29.7	29.7	84	25.5	3	6	248	0.00	29.933 
03:50	29.8	29.8	29.8	84	25.6	3	8	248	0.00	29.933 
03:55	30.0	30.0	30.0	83	25.5	3	6	248	0.00	29.933 
04:00	30.0	30.0	30.0	83	25.5	2	5	248	0.00	29.937 
04:05	30.0	30.0	30.0	83	25.5	3	9	270	0.00	29.937 
04:10	30.1	30.1	30.1	82	25.3	3	6	270	0.00	29.937 
04:15	30.1	30.1	30.1	82	25.3	3	6	248	0.00	29.937 
04:20	30.1	25.9	30.1	82	25.3	4	7	248	0.00	29.937 
04:25	30.3	30.3	30.3	81	25.2	3	6	248	0.00	29.937 
04:30	30.3	30.3	30.3	81	25.2	3	7	270	0.00	29.942 
04:35	30.4	30.4	30.4	80	25.0	3	11	248	0.00	29.942 
04:40	30.4	30.4	30.4	79	24.7	3	6	248	0.00	29.942 
04:45	30.6	30.6	30.6	78	24.6	3	7	270	0.00	29.946 
04:50	30.7	26.6	30.7	77	24.4	4	7	270	0.00	29.946 
04:55	30.7	26.6	30.7	76	24.0	4	9	270	0.00	29.946 
05:00	30.7	26.6	30.7	74	23.4	4	9	270	0.00	29.950 
05:05	30.4	30.4	30.4	73	22.8	3	6	270	0.00	29.950 
05:10	30.3	26.1	30.3	73	22.7	4	7	270	0.00	29.950 
05:15	30.1	25.9	30.1	73	22.5	4	10	270	0.00	29.958 
05:20	30.0	30.0	30.0	73	22.4	3	9	270	0.00	29.958 
05:25	30.0	30.0	30.0	73	22.4	3	6	270	0.00	29.958 
05:30	29.8	29.8	29.8	74	22.5	3	5	315	0.00	29.970 
05:35	29.7	29.7	29.7	75	22.8	3	6	270	0.00	29.970 
05:40	29.7	29.7	29.7	75	22.8	3	7	270	0.00	29.970 
05:45	29.7	29.7	29.7	75	22.8	3	5	270	0.00	29.981 
05:50	29.7	29.7	29.7	76	23.1	3	6	270	0.00	29.981 
05:55	29.5	29.5	29.5	76	22.9	3	6	270	0.00	29.981 
06:00	29.5	29.5	29.5	76	22.9	3	7	292	0.00	29.986 
06:05	29.4	29.4	29.4	76	22.8	2	5	270	0.00	29.986 
06:10	29.3	29.3	29.3	76	22.7	2	4	270	0.00	29.986 
06:15	29.0	29.0	29.0	77	22.7	3	6	248	0.00	29.996 
06:20	28.7	28.7	28.7	77	22.4	2	4	225	0.00	29.996 
06:25	28.4	28.4	28.4	77	22.1	2	4	225	0.00	29.996 
06:30	28.2	28.2	28.2	77	21.9	1	3	248	0.00	30.002 
06:35	27.8	27.8	27.8	78	21.8	1	3	248	0.00	30.002 
06:40	27.5	27.5	27.5	78	21.6	1	3	248	0.00	30.002 
06:45	27.3	27.3	27.3	79	21.7	1	3	248	0.00	30.014 
06:50	27.2	27.2	27.2	79	21.6	1	2	248	0.00	30.014 
06:55	27.0	27.0	27.0	80	21.7	1	3	248	0.00	30.014 
07:00	26.9	26.9	26.9	80	21.6	1	3	248	0.00	30.020 
07:05	26.7	26.7	26.7	80	21.4	1	3	248	0.00	30.020 
07:10	26.4	26.4	26.4	80	21.1	1	3	248	0.00	30.020 
07:15	26.3	26.3	26.3	80	21.0	1	4	248	0.00	30.027 
07:20	26.1	26.1	26.1	81	21.1	1	2	248	0.00	30.027 
07:25	26.0	26.0	26.0	81	21.0	1	3	248	0.00	30.027 
07:30	26.0	26.0	26.0	81	21.0	1	3	248	0.00	30.034 
07:35	26.0	26.0	26.0	82	21.3	1	6	248	0.00	30.034 
07:40	25.8	25.8	25.8	82	21.1	1	4	248	0.00	30.034 
07:45	25.8	25.8	25.8	82	21.1	1	5	248	0.00	30.044 
07:50	25.7	25.7	25.7	82	21.0	1	4	248	0.00	30.044 
07:55	25.7	25.7	25.7	82	21.0	1	3	248	0.00	30.044 
08:00	25.6	25.6	25.6	82	20.9	1	3	248	0.00	30.051 
08:05	25.6	25.6	25.6	82	20.9	0	2	248	0.00	30.051 
08:10	25.6	25.6	25.6	83	21.2	1	3	248	0.00	30.051 
08:15	25.7	25.7	25.7	83	21.3	1	2	248	0.00	30.060 
08:20	25.8	25.8	25.8	83	21.4	1	3	248	0.00	30.060 
08:25	26.0	26.0	26.0	83	21.6	1	3	248	0.00	30.060 
08:30	26.1	26.1	26.1	82	21.4	1	3	248	0.00	30.071 
08:35	26.4	26.4	26.4	82	21.7	1	2	248	0.00	30.071 
08:40	26.7	26.7	26.7	82	22.0	1	4	248	0.00	30.071 
08:45	27.0	27.0	27.0	82	22.3	1	3	248	0.00	30.081 
08:50	27.2	27.2	27.2	81	22.2	1	4	248	0.00	30.081 
08:55	27.3	27.3	27.3	81	22.3	2	4	248	0.00	30.081 
09:00	27.5	27.5	27.5	81	22.4	2	3	248	0.00	30.092 
09:05	27.6	27.6	27.6	81	22.5	2	4	270	0.00	30.092 
09:10	27.8	27.8	27.8	81	22.7	2	5	248	0.00	30.092 
09:15	28.1	28.1	28.1	80	22.7	1	4	248	0.00	30.095 
09:20	28.4	28.4	28.4	80	23.0	2	4	248	0.00	30.095 
09:25	28.7	28.7	28.7	79	23.0	2	5	248	0.00	30.095 
09:30	29.0	29.0	29.0	79	23.3	3	6	248	0.00	30.101 
09:35	29.3	29.3	29.3	78	23.3	2	6	248	0.00	30.101 
09:40	29.4	29.4	29.4	78	23.4	2	6	248	0.00	30.101 
09:45	29.7	29.7	29.7	77	23.4	2	6	248	0.00	30.109 
09:50	29.8	29.8	29.8	77	23.5	3	7	248	0.00	30.109 
09:55	30.0	30.0	30.0	77	23.7	3	5	225	0.00	30.109 
10:00	30.1	30.1	30.1	76	23.5	3	7	270	0.00	30.119 
10:05	30.3	30.3	30.3	76	23.7	3	7	270	0.00	30.119 
10:10	30.6	30.6	30.6	76	24.0	2	6	248	0.00	30.119 
10:15	30.7	30.7	30.7	75	23.7	3	6	248	0.00	30.117 
10:20	30.9	30.9	30.9	74	23.6	3	7	248	0.00	30.117 
10:25	30.9	30.9	30.9	74	23.6	3	5	292	0.00	30.117 
10:30	30.9	30.9	30.9	74	23.6	3	5	248	0.00	30.123 
10:35	31.0	31.0	31.0	74	23.7	2	5	225	0.00	30.123 
10:40	31.2	31.2	31.2	73	23.6	2	5	270	0.00	30.123 
10:45	31.3	31.3	31.3	73	23.7	2	4	270	0.00	30.132 
10:50	31.5	31.5	31.5	73	23.9	2	5	248	0.00	30.132 
10:55	31.8	31.8	31.8	72	23.8	2	4	248	0.00	30.132 
11:00	31.9	31.9	31.9	72	23.9	3	10	248	0.00	30.136 
11:05	32.1	32.1	32.1	71	23.8	3	5	248	0.00	30.136 
11:10	32.1	32.1	32.1	71	23.8	2	5	270	0.00	30.136 
11:15	32.4	32.4	32.4	71	24.1	2	5	270	0.00	30.141 
11:20	32.7	32.7	32.7	70	24.0	2	6	248	0.00	30.141 
11:25	32.8	32.8	32.8	69	23.8	2	4	248	0.00	30.141 
11:30	32.9	32.9	32.9	69	23.9	2	5	248	0.00	30.148 
11:35	33.2	33.2	33.2	68	23.8	2	5	248	0.00	30.148 
11:40	33.4	33.4	33.4	68	24.0	2	5	248	0.00	30.148 
11:45	33.5	33.5	33.5	68	24.1	2	4	248	0.00	30.149 
11:50	33.7	33.7	33.7	67	23.9	2	5	248	0.00	30.149 
11:55	33.7	33.7	33.7	67	23.9	2	5	248	0.00	30.149 
12:00	33.8	33.8	33.8	67	24.0	2	10	248	0.00	30.150 
12:05	33.8	33.8	33.8	67	24.0	3	7	248	0.00	30.150 
12:10	34.0	34.0	34.0	66	23.9	2	6	248	0.00	30.150 
12:15	34.1	34.1	34.1	65	23.6	3	7	248	0.00	30.159 
12:20	34.4	34.4	34.4	65	23.9	2	7	248	0.00	30.159 
12:25	34.1	34.1	34.1	64	23.2	3	5	270	0.00	30.159 
12:30	34.3	34.3	34.3	65	23.8	2	6	225	0.01	30.155 
12:35	34.4	34.4	34.4	64	23.5	2	4	248	0.00	30.155 
12:40	34.6	34.6	34.6	64	23.7	2	4	248	0.00	30.155 
12:45	34.6	34.6	34.6	63	23.3	2	5	248	0.00	30.152 
12:50	34.6	34.6	34.6	63	23.3	3	5	270	0.00	30.152 
12:55	34.4	34.4	34.4	63	23.1	2	4	270	0.00	30.152 
13:00	34.6	34.6	34.6	62	22.9	3	9	248	0.00	30.152 
13:05	34.4	34.4	34.4	62	22.7	3	7	270	0.00	30.152 
13:10	34.6	34.6	34.6	62	22.9	3	5	248	0.00	30.152 
13:15	34.6	34.6	34.6	61	22.6	3	8	248	0.00	30.151 
13:20	34.6	34.6	34.6	60	22.2	3	7	248	0.00	30.151 
13:25	34.7	34.7	34.7	62	23.0	2	5	248	0.00	30.151 
13:30	34.9	34.9	34.9	63	23.6	2	12	248	0.00	30.151 
13:35	35.0	35.0	35.0	63	23.7	2	6	248	0.00	30.151 
13:40	34.9	34.9	34.9	62	23.2	3	7	248	0.00	30.151 
13:45	34.6	34.6	34.6	63	23.3	3	7	270	0.00	30.152 
13:50	34.7	34.7	34.7	63	23.4	3	5	270	0.00	30.152 
13:55	35.0	35.0	35.0	62	23.3	2	5	248	0.00	30.152 
14:00	35.0	35.0	35.0	61	22.9	2	6	248	0.00	30.153 
14:05	34.9	34.9	34.9	61	22.8	3	9	248	0.00	30.153 
14:10	34.7	34.7	34.7	60	22.3	3	5	248	0.00	30.153 
14:15	35.0	35.0	35.0	60	22.5	2	5	248	0.01	30.151 
14:20	35.0	35.0	35.0	60	22.5	3	8	248	0.00	30.151 
14:25	35.0	35.0	35.0	60	22.5	3	7	248	0.00	30.151 
14:30	34.9	34.9	34.9	61	22.8	3	7	248	0.00	30.150 
14:35	35.0	35.0	35.0	61	22.9	2	5	248	0.00	30.150 
14:40	35.2	35.2	35.2	60	22.7	3	10	248	0.00	30.150 
14:45	35.3	35.3	35.3	60	22.8	2	4	248	0.00	30.150 
14:50	35.5	35.5	35.5	60	23.0	3	5	248	0.00	30.150 
14:55	35.3	35.3	35.3	59	22.4	3	9	248	0.00	30.150 
15:00	35.0	31.5	35.0	58	21.7	4	9	248	0.00	30.149 
15:05	34.7	34.7	34.7	58	21.5	3	7	248	0.00	30.149 
15:10	34.9	34.9	34.9	58	21.6	3	9	248	0.00	30.149 
15:15	34.9	34.9	34.9	57	21.2	2	7	248	0.00	30.148 
15:20	35.2	35.2	35.2	58	21.9	2	5	248	0.00	30.148 
15:25	35.3	35.3	35.3	57	21.6	2	5	248	0.00	30.148 
15:30	35.5	35.5	35.5	54	20.5	3	7	248	0.00	30.144 
15:35	35.5	35.5	35.5	54	20.5	3	6	248	0.00	30.144 
15:40	35.6	35.6	35.6	54	20.6	3	6	248	0.00	30.144 
15:45	35.6	35.6	35.6	54	20.6	3	10	248	0.01	30.143 
15:50	35.8	35.8	35.8	54	20.8	2	5	248	0.00	30.143 
15:55	35.9	35.9	35.9	55	21.3	1	5	248	0.00	30.143 
16:00	35.9	35.9	35.9	56	21.8	2	4	248	0.00	30.137 
16:05	35.8	35.8	35.8	55	21.2	3	7	248	0.00	30.137 
16:10	35.6	35.6	35.6	56	21.5	2	5	248	0.00	30.137 
16:15	35.5	35.5	35.5	57	21.8	2	6	248	0.00	30.145 
16:20	35.5	35.5	35.5	58	22.2	1	7	248	0.00	30.145 
16:25	35.3	35.3	35.3	58	22.0	2	6	270	0.00	30.145 
16:30	35.2	35.2	35.2	58	21.9	2	6	248	0.00	30.145 
16:35	35.0	35.0	35.0	59	22.1	2	5	225	0.00	30.145 
16:40	35.0	35.0	35.0	61	22.9	1	4	225	0.00	30.145 
16:45	34.9	34.9	34.9	62	23.2	1	5	225	0.00	30.144 
16:50	34.7	34.7	34.7	62	23.0	2	4	248	0.00	30.144 
16:55	34.6	34.6	34.6	63	23.3	2	6	248	0.00	30.144 
17:00	34.4	34.4	34.4	64	23.5	2	9	248	0.00	30.149 
17:05	34.3	34.3	34.3	64	23.4	3	9	248	0.00	30.149 
17:10	34.1	34.1	34.1	64	23.2	3	6	248	0.00	30.149 
17:15	34.1	34.1	34.1	65	23.6	3	7	248	0.00	30.149 
17:20	34.1	34.1	34.1	65	23.6	2	6	248	0.00	30.149 
17:25	34.0	34.0	34.0	66	23.9	2	6	248	0.00	30.149 
17:30	33.8	33.8	33.8	68	24.4	2	7	270	0.00	30.151 
17:35	33.5	33.5	33.5	69	24.4	2	6	248	0.00	30.151 
17:40	33.4	33.4	33.4	71	25.0	2	6	248	0.00	30.151 
17:45	33.2	33.2	33.2	71	24.8	1	4	248	0.00	30.153 
17:50	33.1	33.1	33.1	72	25.1	2	7	248	0.00	30.153 
17:55	33.1	33.1	33.1	73	25.4	2	6	248	0.00	30.153 
18:00	32.9	32.9	32.9	73	25.2	2	6	248	0.00	30.155 
18:05	32.8	32.8	32.8	74	25.4	2	7	248	0.00	30.155 
18:10	32.8	32.8	32.8	75	25.8	2	6	248	0.00	30.155 
18:15	32.7	32.7	32.7	75	25.7	2	5	225	0.00	30.155 
18:20	32.7	32.7	32.7	75	25.7	1	5	248	0.00	30.155 
18:25	32.5	32.5	32.5	75	25.5	1	3	248	0.00	30.155 
18:30	32.5	32.5	32.5	75	25.5	2	6	248	0.00	30.154 
18:35	32.4	32.4	32.4	76	25.7	1	3	248	0.00	30.154 
18:40	32.4	32.4	32.4	76	25.7	1	3	248	0.00	30.154 
18:45	32.2	32.2	32.2	76	25.5	1	4	248	0.00	30.155 
18:50	32.2	32.2	32.2	76	25.5	1	3	248	0.00	30.155 
18:55	32.2	32.2	32.2	77	25.8	1	4	248	0.00	30.155 
19:00	32.1	32.1	32.1	77	25.7	1	2	248	0.00	30.150 
19:05	32.1	32.1	32.1	77	25.7	0	3	248	0.00	30.150 
19:10	32.2	32.2	32.2	77	25.8	0	2	270	0.00	30.150 
19:15	32.2	32.2	32.2	77	25.8	0	3	270	0.00	30.141 
19:20	32.2	32.2	32.2	77	25.8	0	2	248	0.00	30.141 
19:25	32.4	32.4	32.4	77	26.0	1	3	248	0.00	30.141 
19:30	32.4	32.4	32.4	77	26.0	1	3	248	0.00	30.138 
19:35	32.5	32.5	32.5	76	25.8	1	5	248	0.00	30.138 
19:40	32.7	32.7	32.7	76	26.0	1	3	270	0.00	30.138 
19:45	32.7	32.7	32.7	76	26.0	1	3	248	0.00	30.125 
19:50	32.7	32.7	32.7	76	26.0	1	5	248	0.00	30.125 
19:55	32.7	32.7	32.7	76	26.0	1	2	248	0.00	30.125 
20:00	32.8	32.8	32.8	76	26.1	1	4	248	0.00	30.122 
20:05	32.8	32.8	32.8	76	26.1	1	3	248	0.00	30.122 
20:10	32.9	32.9	32.9	76	26.2	1	5	248	0.00	30.122 
20:15	32.9	32.9	32.9	76	26.2	1	3	248	0.00	30.114 
20:20	33.1	33.1	33.1	76	26.4	1	4	248	0.00	30.114 
20:25	33.2	33.2	33.2	76	26.5	1	3	248	0.00	30.114 
20:30	33.2	33.2	33.2	75	26.2	1	3	248	0.00	30.112 
20:35	33.4	33.4	33.4	75	26.3	1	4	248	0.00	30.112 
20:40	33.4	33.4	33.4	75	26.3	1	5	248	0.00	30.112 
20:45	33.5	33.5	33.5	75	26.4	1	3	248	0.00	30.094 
20:50	33.5	33.5	33.5	74	26.1	0	3	248	0.00	30.094 
20:55	33.5	33.5	33.5	74	26.1	1	3	248	0.00	30.094 
21:00	33.7	33.7	33.7	74	26.3	1	2	248	0.00	30.079 
21:05	33.8	33.8	33.8	73	26.1	1	3	248	0.00	30.079 
21:10	34.0	34.0	34.0	73	26.3	1	5	248	0.00	30.079 
21:15	34.1	34.1	34.1	72	26.0	1	6	248	0.00	30.059 
21:20	34.3	34.3	34.3	71	25.9	1	4	248	0.00	30.059 
21:25	34.4	34.4	34.4	70	25.6	1	6	248	0.00	30.059 
21:30	34.6	34.6	34.6	69	25.5	2	7	248	0.00	30.045 
21:35	34.9	34.9	34.9	69	25.8	1	4	248	0.00	30.045 
21:40	35.2	35.2	35.2	68	25.7	2	5	248	0.00	30.045 
21:45	35.3	35.3	35.3	67	25.5	2	6	248	0.00	30.048 
21:50	35.6	35.6	35.6	66	25.4	2	9	248	0.00	30.048 
21:55	35.8	35.8	35.8	66	25.6	2	5	248	0.00	30.048 
22:00	35.9	35.9	35.9	65	25.3	3	9	248	0.00	30.054 
22:05	36.0	36.0	36.0	65	25.4	3	9	248	0.00	30.054 
22:10	36.3	36.3	36.3	64	25.3	2	6	248	0.00	30.054 
22:15	36.3	36.3	36.3	64	25.3	2	10	248	0.00	30.039 
22:20	36.3	36.3	36.3	64	25.3	2	5	248	0.00	30.039 
22:25	36.5	36.5	36.5	64	25.5	2	7	248	0.00	30.039 
22:30	36.5	36.5	36.5	64	25.5	2	7	248	0.00	30.034 
22:35	36.5	36.5	36.5	64	25.5	2	6	248	0.00	30.034 
22:40	36.5	36.5	36.5	64	25.5	2	5	248	0.00	30.034 
22:45	36.5	36.5	36.5	64	25.5	2	7	248	0.00	30.030 
22:50	36.6	36.6	36.6	64	25.6	3	7	270	0.00	30.030 
22:55	36.6	36.6	36.6	64	25.6	2	6	225	0.00	30.030 
23:00	36.8	36.8	36.8	64	25.8	3	6	248	0.00	30.020 
23:05	36.9	36.9	36.9	64	25.9	2	9	248	0.00	30.020 
23:10	37.0	37.0	37.0	63	25.6	3	6	248	0.00	30.020 
23:15	37.0	37.0	37.0	63	25.6	3	7	248	0.00	30.008 
23:20	37.2	37.2	37.2	63	25.8	3	9	248	0.00	30.008 
23:25	37.5	34.4	37.5	63	26.1	4	10	248	0.00	30.008 
23:30	37.5	37.5	37.5	63	26.1	3	7	248	0.01	30.002 
23:35	37.5	37.5	37.5	63	26.1	2	9	248	0.00	30.002 
23:40	37.5	37.5	37.5	63	26.1	3	11	225	0.00	30.002 
23:45	37.5	37.5	37.5	63	26.1	3	9	248	0.00	29.998 
23:50	37.6	37.6	37.6	63	26.2	2	6	248	0.00	29.998 
23:55	37.5	37.5	37.5	63	26.1	3	7	225	0.00	29.998 

CoCoRaHS
IN-AL-39
A2 Web Hosting
Creative Commons License
GoDaddy
search engine by freefind advanced

loaded 2018-11-13 23:20:00 • last modified 2010-11-18 10:43:29
Privacy PolicyDisclaimer
• wx.awcolley.com is powered by PmWiki v.2002016 •
• all content (unless otherwise noted) © 2018 A W Colley